sensor_id;sensor_type;location;lat;lon;timestamp;pressure;altitude;pressure_sealevel;temperature;humidity
818;BME280;391;51.052;6.954;2023-03-15T00:00:25;100534.25;;;4.55;75.35
818;BME280;391;51.052;6.954;2023-03-15T00:02:28;100542.56;;;4.32;75.02
818;BME280;391;51.052;6.954;2023-03-15T00:04:32;100544.47;;;4.36;75.85
818;BME280;391;51.052;6.954;2023-03-15T00:06:36;100541.19;;;4.22;76.52
818;BME280;391;51.052;6.954;2023-03-15T00:08:40;100529.22;;;4.06;77.79
818;BME280;391;51.052;6.954;2023-03-15T00:10:44;100540.00;;;4.49;76.56
818;BME280;391;51.052;6.954;2023-03-15T00:12:48;100547.97;;;4.54;76.19
818;BME280;391;51.052;6.954;2023-03-15T00:14:52;100544.72;;;4.40;77.38
818;BME280;391;51.052;6.954;2023-03-15T00:16:57;100549.59;;;4.52;77.21
818;BME280;391;51.052;6.954;2023-03-15T00:19:00;100542.81;;;4.54;77.38
818;BME280;391;51.052;6.954;2023-03-15T00:21:04;100555.59;;;4.68;77.49
818;BME280;391;51.052;6.954;2023-03-15T00:23:08;100547.41;;;4.59;77.71
818;BME280;391;51.052;6.954;2023-03-15T00:25:11;100550.25;;;4.48;78.03
818;BME280;391;51.052;6.954;2023-03-15T00:27:15;100551.50;;;4.38;78.70
818;BME280;391;51.052;6.954;2023-03-15T00:29:19;100554.00;;;4.37;78.56
818;BME280;391;51.052;6.954;2023-03-15T00:31:24;100544.75;;;4.58;78.66
818;BME280;391;51.052;6.954;2023-03-15T00:33:29;100555.75;;;4.71;77.64
818;BME280;391;51.052;6.954;2023-03-15T00:35:37;100549.16;;;4.60;78.63
818;BME280;391;51.052;6.954;2023-03-15T00:37:41;100561.75;;;4.54;78.60
818;BME280;391;51.052;6.954;2023-03-15T00:39:44;100563.56;;;4.73;78.58
818;BME280;391;51.052;6.954;2023-03-15T00:41:48;100570.00;;;4.81;78.68
818;BME280;391;51.052;6.954;2023-03-15T00:43:51;100565.72;;;5.54;88.03
818;BME280;391;51.052;6.954;2023-03-15T00:45:56;100559.47;;;5.68;79.79
818;BME280;391;51.052;6.954;2023-03-15T00:48:00;100574.22;;;5.70;79.37
818;BME280;391;51.052;6.954;2023-03-15T00:50:05;100571.25;;;5.61;78.33
818;BME280;391;51.052;6.954;2023-03-15T00:52:09;100562.38;;;5.56;78.53
818;BME280;391;51.052;6.954;2023-03-15T00:54:13;100573.06;;;5.64;77.64
818;BME280;391;51.052;6.954;2023-03-15T00:56:19;100573.13;;;5.65;77.94
818;BME280;391;51.052;6.954;2023-03-15T00:58:23;100575.13;;;5.71;77.52
818;BME280;391;51.052;6.954;2023-03-15T01:00:28;100566.75;;;5.76;77.10
818;BME280;391;51.052;6.954;2023-03-15T01:02:32;100575.97;;;5.71;77.50
818;BME280;391;51.052;6.954;2023-03-15T01:04:35;100580.16;;;5.68;77.43
818;BME280;391;51.052;6.954;2023-03-15T01:06:40;100587.22;;;5.72;77.48
818;BME280;391;51.052;6.954;2023-03-15T01:08:44;100579.66;;;5.57;77.27
818;BME280;391;51.052;6.954;2023-03-15T01:10:47;100583.75;;;5.34;78.25
818;BME280;391;51.052;6.954;2023-03-15T01:12:51;100577.09;;;5.40;78.68
818;BME280;391;51.052;6.954;2023-03-15T01:14:54;100586.63;;;5.58;78.49
818;BME280;391;51.052;6.954;2023-03-15T01:16:58;100589.47;;;5.64;78.64
818;BME280;391;51.052;6.954;2023-03-15T01:19:03;100582.75;;;5.13;79.85
818;BME280;391;51.052;6.954;2023-03-15T01:21:06;100577.69;;;4.97;80.55
818;BME280;391;51.052;6.954;2023-03-15T01:23:11;100573.31;;;4.96;81.34
818;BME280;391;51.052;6.954;2023-03-15T01:25:14;100576.25;;;4.86;82.72
818;BME280;391;51.052;6.954;2023-03-15T01:27:19;100571.75;;;4.82;83.53
818;BME280;391;51.052;6.954;2023-03-15T01:29:23;100572.72;;;4.84;83.91
818;BME280;391;51.052;6.954;2023-03-15T01:31:28;100580.69;;;5.06;83.09
818;BME280;391;51.052;6.954;2023-03-15T01:33:32;100582.53;;;5.09;83.08
818;BME280;391;51.052;6.954;2023-03-15T01:35:35;100576.28;;;5.04;82.79
818;BME280;391;51.052;6.954;2023-03-15T01:37:39;100486.72;;;4.50;83.31
818;BME280;391;51.052;6.954;2023-03-15T01:39:44;100595.28;;;5.23;82.96
818;BME280;391;51.052;6.954;2023-03-15T01:41:47;100595.22;;;5.22;82.95
818;BME280;391;51.052;6.954;2023-03-15T01:43:52;100610.19;;;5.11;83.39
818;BME280;391;51.052;6.954;2023-03-15T01:46:02;100605.84;;;4.93;84.37
818;BME280;391;51.052;6.954;2023-03-15T01:48:09;100608.81;;;5.00;84.24
818;BME280;391;51.052;6.954;2023-03-15T01:50:13;100613.38;;;5.06;83.78
818;BME280;391;51.052;6.954;2023-03-15T01:52:18;100597.94;;;4.90;84.61
818;BME280;391;51.052;6.954;2023-03-15T01:54:33;100611.69;;;5.06;84.49
818;BME280;391;51.052;6.954;2023-03-15T01:56:43;100605.78;;;4.91;84.83
818;BME280;391;51.052;6.954;2023-03-15T01:58:49;100607.03;;;4.48;85.89
818;BME280;391;51.052;6.954;2023-03-15T02:00:54;100615.13;;;4.21;87.18
818;BME280;391;51.052;6.954;2023-03-15T02:03:02;100609.66;;;4.15;88.54
818;BME280;391;51.052;6.954;2023-03-15T02:05:14;100614.19;;;4.19;88.07
818;BME280;391;51.052;6.954;2023-03-15T02:07:22;100620.28;;;4.05;88.46
818;BME280;391;51.052;6.954;2023-03-15T02:09:33;100608.06;;;3.85;89.44
818;BME280;391;51.052;6.954;2023-03-15T02:11:37;100610.50;;;3.98;90.54
818;BME280;391;51.052;6.954;2023-03-15T02:13:45;100605.97;;;3.94;90.09
818;BME280;391;51.052;6.954;2023-03-15T02:15:51;100608.88;;;4.00;90.42
818;BME280;391;51.052;6.954;2023-03-15T02:18:01;100616.09;;;3.75;90.67
818;BME280;391;51.052;6.954;2023-03-15T02:20:11;100613.09;;;3.67;92.15
818;BME280;391;51.052;6.954;2023-03-15T02:22:28;100610.16;;;3.76;91.80
818;BME280;391;51.052;6.954;2023-03-15T02:24:38;100612.41;;;3.86;91.97
818;BME280;391;51.052;6.954;2023-03-15T02:26:48;100613.13;;;4.00;90.50
818;BME280;391;51.052;6.954;2023-03-15T02:28:55;100609.03;;;4.03;90.73
818;BME280;391;51.052;6.954;2023-03-15T02:30:58;100605.56;;;3.87;91.17
818;BME280;391;51.052;6.954;2023-03-15T02:33:06;100592.50;;;3.67;91.65
818;BME280;391;51.052;6.954;2023-03-15T02:35:11;100598.38;;;3.81;91.41
818;BME280;391;51.052;6.954;2023-03-15T02:37:15;100604.47;;;3.67;91.46
818;BME280;391;51.052;6.954;2023-03-15T02:39:21;100608.53;;;3.62;92.59
818;BME280;391;51.052;6.954;2023-03-15T02:41:28;100616.09;;;3.59;91.76
818;BME280;391;51.052;6.954;2023-03-15T02:43:35;100615.44;;;3.47;92.81
818;BME280;391;51.052;6.954;2023-03-15T02:45:40;100616.19;;;3.30;92.89
818;BME280;391;51.052;6.954;2023-03-15T02:47:44;100617.28;;;3.18;93.37
818;BME280;391;51.052;6.954;2023-03-15T02:49:51;100585.44;;;3.02;94.06
818;BME280;391;51.052;6.954;2023-03-15T02:51:56;100620.25;;;3.41;93.24
818;BME280;391;51.052;6.954;2023-03-15T02:53:59;100625.22;;;3.68;93.44
818;BME280;391;51.052;6.954;2023-03-15T02:56:03;100627.75;;;3.52;93.17
818;BME280;391;51.052;6.954;2023-03-15T02:58:07;100629.25;;;3.63;92.58
818;BME280;391;51.052;6.954;2023-03-15T03:00:11;100625.94;;;3.66;92.03
818;BME280;391;51.052;6.954;2023-03-15T03:02:19;100634.22;;;3.77;91.44
818;BME280;391;51.052;6.954;2023-03-15T03:04:23;100634.72;;;3.69;91.15
818;BME280;391;51.052;6.954;2023-03-15T03:06:27;100635.16;;;3.46;92.12
818;BME280;391;51.052;6.954;2023-03-15T03:08:30;100634.91;;;3.58;91.77
818;BME280;391;51.052;6.954;2023-03-15T03:10:34;100637.03;;;3.65;91.94
818;BME280;391;51.052;6.954;2023-03-15T03:12:38;100646.50;;;3.50;91.93
818;BME280;391;51.052;6.954;2023-03-15T03:14:41;100644.84;;;3.50;92.15
818;BME280;391;51.052;6.954;2023-03-15T03:16:49;100645.19;;;3.72;92.14
818;BME280;391;51.052;6.954;2023-03-15T03:18:54;100644.53;;;3.77;91.75
818;BME280;391;51.052;6.954;2023-03-15T03:20:58;100640.13;;;3.90;91.25
818;BME280;391;51.052;6.954;2023-03-15T03:23:02;100655.53;;;4.05;91.09
818;BME280;391;51.052;6.954;2023-03-15T03:25:08;100557.31;;;3.21;90.59
818;BME280;391;51.052;6.954;2023-03-15T03:27:12;100642.53;;;3.87;90.98
818;BME280;391;51.052;6.954;2023-03-15T03:29:19;100664.16;;;3.89;90.42
818;BME280;391;51.052;6.954;2023-03-15T03:31:26;100636.31;;;3.67;90.64
818;BME280;391;51.052;6.954;2023-03-15T03:33:30;100672.75;;;3.90;90.47
818;BME280;391;51.052;6.954;2023-03-15T03:35:35;100670.56;;;3.81;90.97
818;BME280;391;51.052;6.954;2023-03-15T03:37:39;100674.28;;;3.86;91.02
818;BME280;391;51.052;6.954;2023-03-15T03:39:56;100661.78;;;3.78;91.27
818;BME280;391;51.052;6.954;2023-03-15T03:42:00;100675.09;;;3.54;90.65
818;BME280;391;51.052;6.954;2023-03-15T03:44:04;100677.94;;;3.59;91.58
818;BME280;391;51.052;6.954;2023-03-15T03:46:08;100689.53;;;3.82;91.20
818;BME280;391;51.052;6.954;2023-03-15T03:48:18;100683.06;;;3.90;91.12
818;BME280;391;51.052;6.954;2023-03-15T03:50:21;100686.69;;;3.93;90.49
818;BME280;391;51.052;6.954;2023-03-15T03:52:26;100679.63;;;3.89;90.82
818;BME280;391;51.052;6.954;2023-03-15T03:54:38;100689.91;;;3.73;90.71
818;BME280;391;51.052;6.954;2023-03-15T03:56:44;100674.81;;;3.64;90.59
818;BME280;391;51.052;6.954;2023-03-15T03:58:47;100690.28;;;3.64;90.76
818;BME280;391;51.052;6.954;2023-03-15T04:00:59;100684.22;;;3.64;91.31
818;BME280;391;51.052;6.954;2023-03-15T04:03:06;100693.28;;;3.72;91.59
818;BME280;391;51.052;6.954;2023-03-15T04:05:12;100692.66;;;3.76;91.49
818;BME280;391;51.052;6.954;2023-03-15T04:07:16;100700.72;;;3.82;91.04
818;BME280;391;51.052;6.954;2023-03-15T04:09:21;100686.53;;;3.90;90.96
818;BME280;391;51.052;6.954;2023-03-15T04:11:28;100694.81;;;3.68;90.71
818;BME280;391;51.052;6.954;2023-03-15T04:13:35;100706.19;;;3.72;90.93
818;BME280;391;51.052;6.954;2023-03-15T04:15:42;100702.63;;;3.86;90.51
818;BME280;391;51.052;6.954;2023-03-15T04:17:49;100719.00;;;3.87;90.85
818;BME280;391;51.052;6.954;2023-03-15T04:20:04;100691.69;;;3.90;90.31
818;BME280;391;51.052;6.954;2023-03-15T04:22:18;100707.94;;;4.04;90.64
818;BME280;391;51.052;6.954;2023-03-15T04:24:35;100718.97;;;4.01;90.32
818;BME280;391;51.052;6.954;2023-03-15T04:26:47;100717.94;;;3.83;89.95
818;BME280;391;51.052;6.954;2023-03-15T04:29:11;100720.06;;;3.90;89.94
818;BME280;391;51.052;6.954;2023-03-15T04:31:38;100724.44;;;3.91;90.44
818;BME280;391;51.052;6.954;2023-03-15T04:34:07;100732.91;;;3.43;91.32
818;BME280;391;51.052;6.954;2023-03-15T04:36:35;100728.25;;;3.52;92.09
818;BME280;391;51.052;6.954;2023-03-15T04:38:57;100731.38;;;3.32;91.32
818;BME280;391;51.052;6.954;2023-03-15T04:41:20;100736.97;;;3.40;91.54
818;BME280;391;51.052;6.954;2023-03-15T04:43:46;100739.22;;;3.34;91.45
818;BME280;391;51.052;6.954;2023-03-15T04:45:59;100743.59;;;3.35;91.76
818;BME280;391;51.052;6.954;2023-03-15T04:48:25;100745.44;;;3.37;91.60
818;BME280;391;51.052;6.954;2023-03-15T04:50:52;100749.16;;;3.28;90.95
818;BME280;391;51.052;6.954;2023-03-15T04:53:13;100748.53;;;3.17;91.10
818;BME280;391;51.052;6.954;2023-03-15T04:55:26;100748.63;;;3.33;91.83
818;BME280;391;51.052;6.954;2023-03-15T04:57:49;100749.59;;;3.35;91.32
818;BME280;391;51.052;6.954;2023-03-15T05:00:12;100650.78;;;2.89;90.75
818;BME280;391;51.052;6.954;2023-03-15T05:02:35;100759.63;;;3.60;90.02
818;BME280;391;51.052;6.954;2023-03-15T05:05:03;100754.75;;;3.50;90.58
818;BME280;391;51.052;6.954;2023-03-15T05:07:27;100759.56;;;3.44;89.75
818;BME280;391;51.052;6.954;2023-03-15T05:09:51;100768.53;;;3.50;90.45
818;BME280;391;51.052;6.954;2023-03-15T05:12:13;100764.06;;;3.48;90.49
818;BME280;391;51.052;6.954;2023-03-15T05:14:21;100768.44;;;3.34;90.54
818;BME280;391;51.052;6.954;2023-03-15T05:16:43;100773.69;;;3.50;90.87
818;BME280;391;51.052;6.954;2023-03-15T05:19:11;100768.31;;;3.62;89.98
818;BME280;391;51.052;6.954;2023-03-15T05:21:35;100765.75;;;3.62;90.20
818;BME280;391;51.052;6.954;2023-03-15T05:23:47;100647.88;;;2.83;89.67
818;BME280;391;51.052;6.954;2023-03-15T05:26:16;100775.34;;;3.64;90.27
818;BME280;391;51.052;6.954;2023-03-15T05:28:44;100781.41;;;3.50;89.35
818;BME280;391;51.052;6.954;2023-03-15T05:31:07;100788.94;;;3.62;90.71
818;BME280;391;51.052;6.954;2023-03-15T05:33:40;100789.81;;;3.77;90.02
818;BME280;391;51.052;6.954;2023-03-15T05:35:48;100721.25;;;3.35;90.11
818;BME280;391;51.052;6.954;2023-03-15T05:38:07;100809.75;;;3.80;90.19
818;BME280;391;51.052;6.954;2023-03-15T05:40:45;100798.38;;;3.47;89.86
818;BME280;391;51.052;6.954;2023-03-15T05:43:21;100806.38;;;3.37;91.07
818;BME280;391;51.052;6.954;2023-03-15T05:45:43;100822.56;;;3.34;91.23
818;BME280;391;51.052;6.954;2023-03-15T05:48:22;100818.25;;;3.05;92.16
818;BME280;391;51.052;6.954;2023-03-15T05:50:39;100796.28;;;2.83;93.08
818;BME280;391;51.052;6.954;2023-03-15T05:52:42;100708.78;;;2.40;93.19
818;BME280;391;51.052;6.954;2023-03-15T05:55:07;100805.81;;;3.13;92.97
818;BME280;391;51.052;6.954;2023-03-15T05:57:49;100835.69;;;3.39;92.45
818;BME280;391;51.052;6.954;2023-03-15T06:00:02;100847.34;;;3.47;91.71
818;BME280;391;51.052;6.954;2023-03-15T06:02:17;100846.00;;;3.39;92.11
818;BME280;391;51.052;6.954;2023-03-15T06:04:35;100813.75;;;3.31;91.96
818;BME280;391;51.052;6.954;2023-03-15T06:06:40;100859.50;;;3.64;92.13
818;BME280;391;51.052;6.954;2023-03-15T06:08:45;100857.50;;;3.73;91.53
818;BME280;391;51.052;6.954;2023-03-15T06:10:49;100743.84;;;3.10;90.57
818;BME280;391;51.052;6.954;2023-03-15T06:12:52;100870.09;;;3.68;90.81
818;BME280;391;51.052;6.954;2023-03-15T06:14:57;100872.50;;;3.65;90.47
818;BME280;391;51.052;6.954;2023-03-15T06:17:02;100873.03;;;3.60;91.34
818;BME280;391;51.052;6.954;2023-03-15T06:19:05;100875.53;;;3.73;91.02
818;BME280;391;51.052;6.954;2023-03-15T06:21:10;100869.28;;;3.84;90.60
818;BME280;391;51.052;6.954;2023-03-15T06:23:15;100870.53;;;3.91;91.32
818;BME280;391;51.052;6.954;2023-03-15T06:25:20;100876.94;;;4.28;94.70
818;BME280;391;51.052;6.954;2023-03-15T06:27:24;100874.31;;;5.38;99.99
818;BME280;391;51.052;6.954;2023-03-15T06:29:30;100878.44;;;5.68;96.37
818;BME280;391;51.052;6.954;2023-03-15T06:31:34;100878.25;;;5.48;93.81
818;BME280;391;51.052;6.954;2023-03-15T06:33:41;100757.72;;;4.50;91.77
818;BME280;391;51.052;6.954;2023-03-15T06:35:45;100866.84;;;4.94;92.21
818;BME280;391;51.052;6.954;2023-03-15T06:37:50;100886.91;;;4.84;91.54
818;BME280;391;51.052;6.954;2023-03-15T06:39:55;100891.34;;;4.70;90.75
818;BME280;391;51.052;6.954;2023-03-15T06:41:59;100886.78;;;4.66;90.54
818;BME280;391;51.052;6.954;2023-03-15T06:44:05;100889.88;;;4.59;90.60
818;BME280;391;51.052;6.954;2023-03-15T06:46:09;100888.81;;;4.55;90.49
818;BME280;391;51.052;6.954;2023-03-15T06:48:14;100903.16;;;4.50;89.99
818;BME280;391;51.052;6.954;2023-03-15T06:50:19;100908.97;;;4.46;90.01
818;BME280;391;51.052;6.954;2023-03-15T06:52:22;100909.13;;;4.49;90.62
818;BME280;391;51.052;6.954;2023-03-15T06:54:27;100869.66;;;4.36;89.69
818;BME280;391;51.052;6.954;2023-03-15T06:56:31;100922.22;;;4.52;89.07
818;BME280;391;51.052;6.954;2023-03-15T06:58:38;100922.41;;;4.41;88.62
818;BME280;391;51.052;6.954;2023-03-15T07:00:42;100920.97;;;4.46;88.89
818;BME280;391;51.052;6.954;2023-03-15T07:02:46;100929.06;;;4.52;88.52
818;BME280;391;51.052;6.954;2023-03-15T07:04:49;100935.28;;;4.55;89.63
818;BME280;391;51.052;6.954;2023-03-15T07:06:53;100942.31;;;4.58;89.61
818;BME280;391;51.052;6.954;2023-03-15T07:08:57;100948.88;;;4.67;88.93
818;BME280;391;51.052;6.954;2023-03-15T07:11:03;100958.81;;;4.76;89.06
818;BME280;391;51.052;6.954;2023-03-15T07:13:07;100957.91;;;4.75;88.88
818;BME280;391;51.052;6.954;2023-03-15T07:15:11;100959.59;;;4.59;88.50
818;BME280;391;51.052;6.954;2023-03-15T07:17:16;100888.38;;;4.02;88.26
818;BME280;391;51.052;6.954;2023-03-15T07:19:20;100962.09;;;4.43;88.27
818;BME280;391;51.052;6.954;2023-03-15T07:21:23;100968.50;;;4.49;88.80
818;BME280;391;51.052;6.954;2023-03-15T07:23:28;100927.94;;;4.32;88.53
818;BME280;391;51.052;6.954;2023-03-15T07:25:32;100972.44;;;4.43;88.43
818;BME280;391;51.052;6.954;2023-03-15T07:27:56;100897.38;;;3.94;89.16
818;BME280;391;51.052;6.954;2023-03-15T07:30:00;100976.53;;;4.24;88.74
818;BME280;391;51.052;6.954;2023-03-15T07:32:04;100987.50;;;4.20;89.84
818;BME280;391;51.052;6.954;2023-03-15T07:34:08;100984.72;;;4.32;89.44
818;BME280;391;51.052;6.954;2023-03-15T07:36:11;100990.56;;;4.44;89.02
818;BME280;391;51.052;6.954;2023-03-15T07:38:15;101000.63;;;4.54;89.40
818;BME280;391;51.052;6.954;2023-03-15T07:40:19;100999.56;;;4.51;89.33
818;BME280;391;51.052;6.954;2023-03-15T07:42:23;101000.38;;;4.35;89.68
818;BME280;391;51.052;6.954;2023-03-15T07:44:31;100997.38;;;4.28;89.70
818;BME280;391;51.052;6.954;2023-03-15T07:46:35;101005.28;;;4.31;89.76
818;BME280;391;51.052;6.954;2023-03-15T07:48:39;101010.69;;;4.35;89.98
818;BME280;391;51.052;6.954;2023-03-15T07:50:44;101012.72;;;4.41;89.76
818;BME280;391;51.052;6.954;2023-03-15T07:52:47;100991.50;;;4.30;89.80
818;BME280;391;51.052;6.954;2023-03-15T07:54:51;101031.88;;;4.59;89.05
818;BME280;391;51.052;6.954;2023-03-15T07:56:54;101026.88;;;4.62;89.49
818;BME280;391;51.052;6.954;2023-03-15T07:58:58;101025.53;;;4.68;89.53
818;BME280;391;51.052;6.954;2023-03-15T08:01:03;101027.56;;;4.74;88.61
818;BME280;391;51.052;6.954;2023-03-15T08:03:06;101028.97;;;4.84;88.71
818;BME280;391;51.052;6.954;2023-03-15T08:05:10;101040.53;;;4.90;88.55
818;BME280;391;51.052;6.954;2023-03-15T08:07:13;101035.38;;;4.90;88.22
818;BME280;391;51.052;6.954;2023-03-15T08:09:17;101032.78;;;4.90;89.12
818;BME280;391;51.052;6.954;2023-03-15T08:11:20;101048.72;;;4.98;88.28
818;BME280;391;51.052;6.954;2023-03-15T08:13:24;101045.88;;;4.93;88.34
818;BME280;391;51.052;6.954;2023-03-15T08:15:27;101044.91;;;4.91;88.76
818;BME280;391;51.052;6.954;2023-03-15T08:17:32;101064.13;;;4.96;89.17
818;BME280;391;51.052;6.954;2023-03-15T08:19:35;101062.69;;;5.01;88.30
818;BME280;391;51.052;6.954;2023-03-15T08:21:39;101070.06;;;5.10;88.61
818;BME280;391;51.052;6.954;2023-03-15T08:23:46;101071.31;;;5.02;87.94
818;BME280;391;51.052;6.954;2023-03-15T08:25:50;100968.97;;;4.28;88.86
818;BME280;391;51.052;6.954;2023-03-15T08:27:53;101069.00;;;5.06;88.52
818;BME280;391;51.052;6.954;2023-03-15T08:29:57;101074.34;;;5.09;88.29
818;BME280;391;51.052;6.954;2023-03-15T08:32:00;101044.91;;;4.91;87.85
818;BME280;391;51.052;6.954;2023-03-15T08:34:06;101068.41;;;4.96;88.25
818;BME280;391;51.052;6.954;2023-03-15T08:36:09;101082.91;;;5.08;87.75
818;BME280;391;51.052;6.954;2023-03-15T08:38:13;101090.38;;;5.18;87.38
818;BME280;391;51.052;6.954;2023-03-15T08:40:17;101099.53;;;5.28;87.47
818;BME280;391;51.052;6.954;2023-03-15T08:42:26;101094.69;;;5.34;87.45
818;BME280;391;51.052;6.954;2023-03-15T08:44:30;101099.69;;;5.31;86.95
818;BME280;391;51.052;6.954;2023-03-15T08:46:35;101099.78;;;5.32;86.84
818;BME280;391;51.052;6.954;2023-03-15T08:48:39;101060.94;;;5.00;86.06
818;BME280;391;51.052;6.954;2023-03-15T08:50:44;101090.69;;;5.24;85.97
818;BME280;391;51.052;6.954;2023-03-15T08:52:48;101104.97;;;5.32;85.72
818;BME280;391;51.052;6.954;2023-03-15T08:54:51;101117.16;;;5.35;84.93
818;BME280;391;51.052;6.954;2023-03-15T08:56:55;101112.06;;;5.37;85.34
818;BME280;391;51.052;6.954;2023-03-15T08:58:58;101124.28;;;5.55;84.53
818;BME280;391;51.052;6.954;2023-03-15T09:01:02;101133.69;;;5.69;84.66
818;BME280;391;51.052;6.954;2023-03-15T09:03:06;101139.31;;;5.77;83.95
818;BME280;391;51.052;6.954;2023-03-15T09:05:09;101135.09;;;5.79;83.27
818;BME280;391;51.052;6.954;2023-03-15T09:07:14;101136.22;;;5.84;83.27
818;BME280;391;51.052;6.954;2023-03-15T09:09:18;101143.75;;;5.79;82.32
818;BME280;391;51.052;6.954;2023-03-15T09:11:21;101139.03;;;5.87;82.15
818;BME280;391;51.052;6.954;2023-03-15T09:13:25;101146.38;;;5.96;82.08
818;BME280;391;51.052;6.954;2023-03-15T09:15:28;101144.63;;;5.64;80.88
818;BME280;391;51.052;6.954;2023-03-15T09:17:32;101148.97;;;5.65;80.88
818;BME280;391;51.052;6.954;2023-03-15T09:19:36;101146.22;;;5.62;81.32
818;BME280;391;51.052;6.954;2023-03-15T09:21:39;101146.47;;;5.66;80.67
818;BME280;391;51.052;6.954;2023-03-15T09:23:47;101143.72;;;5.63;79.68
818;BME280;391;51.052;6.954;2023-03-15T09:25:51;101149.66;;;5.77;79.67
818;BME280;391;51.052;6.954;2023-03-15T09:27:54;101151.47;;;5.94;79.83
818;BME280;391;51.052;6.954;2023-03-15T09:29:58;101151.47;;;5.94;79.44
818;BME280;391;51.052;6.954;2023-03-15T09:32:02;101153.16;;;6.10;79.18
818;BME280;391;51.052;6.954;2023-03-15T09:34:05;101149.03;;;6.13;78.08
818;BME280;391;51.052;6.954;2023-03-15T09:36:09;101151.63;;;6.13;77.67
818;BME280;391;51.052;6.954;2023-03-15T09:38:12;101130.03;;;6.13;77.43
818;BME280;391;51.052;6.954;2023-03-15T09:40:19;101150.34;;;6.37;77.19
818;BME280;391;51.052;6.954;2023-03-15T09:42:29;101151.56;;;6.28;76.67
818;BME280;391;51.052;6.954;2023-03-15T09:44:43;101165.22;;;6.25;75.61
818;BME280;391;51.052;6.954;2023-03-15T09:46:58;101123.25;;;5.99;75.16
818;BME280;391;51.052;6.954;2023-03-15T09:49:10;101154.06;;;6.10;74.70
818;BME280;391;51.052;6.954;2023-03-15T09:51:18;101169.44;;;6.23;74.21
818;BME280;391;51.052;6.954;2023-03-15T09:53:32;101172.13;;;6.25;74.77
818;BME280;391;51.052;6.954;2023-03-15T09:55:40;101172.13;;;6.41;75.23
818;BME280;391;51.052;6.954;2023-03-15T09:57:46;101147.44;;;6.48;75.04
818;BME280;391;51.052;6.954;2023-03-15T09:59:52;101151.53;;;6.60;73.79
818;BME280;391;51.052;6.954;2023-03-15T10:01:58;101162.28;;;6.68;73.03
818;BME280;391;51.052;6.954;2023-03-15T10:04:08;101128.94;;;6.58;73.92
818;BME280;391;51.052;6.954;2023-03-15T10:06:16;101176.44;;;7.08;73.79
818;BME280;391;51.052;6.954;2023-03-15T10:08:20;101166.22;;;7.29;73.09
818;BME280;391;51.052;6.954;2023-03-15T10:10:27;101170.88;;;7.18;71.04
818;BME280;391;51.052;6.954;2023-03-15T10:12:37;101163.28;;;7.05;70.12
818;BME280;391;51.052;6.954;2023-03-15T10:15:00;101166.97;;;6.92;68.11
818;BME280;391;51.052;6.954;2023-03-15T10:17:13;101164.47;;;6.94;68.95
818;BME280;391;51.052;6.954;2023-03-15T10:19:24;101165.09;;;7.06;69.02
818;BME280;391;51.052;6.954;2023-03-15T10:21:37;101161.47;;;7.20;68.94
818;BME280;391;51.052;6.954;2023-03-15T10:23:46;101154.56;;;7.38;68.84
818;BME280;391;51.052;6.954;2023-03-15T10:25:53;101167.09;;;7.47;67.49
818;BME280;391;51.052;6.954;2023-03-15T10:28:00;101168.22;;;7.17;66.10
818;BME280;391;51.052;6.954;2023-03-15T10:30:14;101086.06;;;6.47;66.74
818;BME280;391;51.052;6.954;2023-03-15T10:32:21;101170.22;;;7.22;67.24
818;BME280;391;51.052;6.954;2023-03-15T10:34:26;101185.69;;;7.38;66.56
818;BME280;391;51.052;6.954;2023-03-15T10:36:30;101181.84;;;7.48;64.89
818;BME280;391;51.052;6.954;2023-03-15T10:38:33;101180.19;;;7.50;65.26
818;BME280;391;51.052;6.954;2023-03-15T10:40:38;101184.59;;;7.69;63.96
818;BME280;391;51.052;6.954;2023-03-15T10:42:43;101178.03;;;7.77;62.19
818;BME280;391;51.052;6.954;2023-03-15T10:44:49;101181.97;;;8.06;62.37
818;BME280;391;51.052;6.954;2023-03-15T10:47:01;101143.66;;;8.19;61.27
818;BME280;391;51.052;6.954;2023-03-15T10:49:21;101182.06;;;8.65;60.67
818;BME280;391;51.052;6.954;2023-03-15T10:51:26;101186.59;;;8.69;59.39
818;BME280;391;51.052;6.954;2023-03-15T10:53:30;101184.50;;;8.81;59.14
818;BME280;391;51.052;6.954;2023-03-15T10:55:36;101185.00;;;9.12;59.32
818;BME280;391;51.052;6.954;2023-03-15T10:57:51;101197.41;;;9.19;57.46
818;BME280;391;51.052;6.954;2023-03-15T10:59:59;101182.31;;;9.11;56.52
818;BME280;391;51.052;6.954;2023-03-15T11:02:18;101187.16;;;9.01;56.41
818;BME280;391;51.052;6.954;2023-03-15T11:04:24;101188.63;;;8.76;56.41
818;BME280;391;51.052;6.954;2023-03-15T11:06:39;101187.91;;;8.40;58.11
818;BME280;391;51.052;6.954;2023-03-15T11:08:43;101194.47;;;7.95;59.21
818;BME280;391;51.052;6.954;2023-03-15T11:10:54;101198.75;;;7.94;59.89
818;BME280;391;51.052;6.954;2023-03-15T11:13:19;101200.06;;;8.04;59.40
818;BME280;391;51.052;6.954;2023-03-15T11:15:24;101194.75;;;8.01;60.03
818;BME280;391;51.052;6.954;2023-03-15T11:17:32;101197.84;;;8.29;60.60
818;BME280;391;51.052;6.954;2023-03-15T11:19:40;101201.16;;;8.46;58.53
818;BME280;391;51.052;6.954;2023-03-15T11:21:44;101204.34;;;8.39;57.53
818;BME280;391;51.052;6.954;2023-03-15T11:23:50;101204.19;;;8.55;57.34
818;BME280;391;51.052;6.954;2023-03-15T11:25:54;101203.28;;;8.74;56.76
818;BME280;391;51.052;6.954;2023-03-15T11:27:59;101114.50;;;8.65;57.09
818;BME280;391;51.052;6.954;2023-03-15T11:30:03;101219.25;;;9.43;54.47
818;BME280;391;51.052;6.954;2023-03-15T11:32:14;101216.97;;;9.30;54.80
818;BME280;391;51.052;6.954;2023-03-15T11:34:25;101222.06;;;9.70;55.51
818;BME280;391;51.052;6.954;2023-03-15T11:36:31;101233.25;;;9.68;53.34
818;BME280;391;51.052;6.954;2023-03-15T11:38:38;101225.78;;;9.54;54.23
818;BME280;391;51.052;6.954;2023-03-15T11:40:47;101224.09;;;9.77;54.15
818;BME280;391;51.052;6.954;2023-03-15T11:42:57;101108.91;;;9.18;52.75
818;BME280;391;51.052;6.954;2023-03-15T11:45:04;101240.63;;;10.21;51.64
818;BME280;391;51.052;6.954;2023-03-15T11:47:19;101167.69;;;9.78;50.88
818;BME280;391;51.052;6.954;2023-03-15T11:49:34;101246.13;;;9.85;49.52
818;BME280;391;51.052;6.954;2023-03-15T11:51:39;101244.25;;;9.40;49.02
818;BME280;391;51.052;6.954;2023-03-15T11:53:46;101238.81;;;9.77;49.95
818;BME280;391;51.052;6.954;2023-03-15T11:55:50;101242.56;;;10.26;48.58